sensor_id;sensor_type;location;lat;lon;timestamp;pressure;altitude;pressure_sealevel;temperature;humidity
75794;BME280;64418;47.536;19.074;2023-07-31T00:02:05;100010.41;;;19.11;95.54
75794;BME280;64418;47.536;19.074;2023-07-31T00:04:31;100009.59;;;19.11;95.09
75794;BME280;64418;47.536;19.074;2023-07-31T00:06:57;100007.69;;;19.16;94.62
75794;BME280;64418;47.536;19.074;2023-07-31T00:09:24;100006.31;;;19.19;94.08
75794;BME280;64418;47.536;19.074;2023-07-31T00:11:50;100009.34;;;19.17;93.71
75794;BME280;64418;47.536;19.074;2023-07-31T00:14:18;100006.06;;;19.26;92.95
75794;BME280;64418;47.536;19.074;2023-07-31T00:16:44;100009.06;;;19.24;92.56
75794;BME280;64418;47.536;19.074;2023-07-31T00:19:11;100008.25;;;19.29;91.88
75794;BME280;64418;47.536;19.074;2023-07-31T00:21:38;100013.47;;;19.25;91.85
75794;BME280;64418;47.536;19.074;2023-07-31T00:24:04;100005.22;;;19.25;91.94
75794;BME280;64418;47.536;19.074;2023-07-31T00:26:30;100009.06;;;19.24;91.90
75794;BME280;64418;47.536;19.074;2023-07-31T00:28:56;100015.38;;;19.24;92.00
75794;BME280;64418;47.536;19.074;2023-07-31T00:31:21;100019.50;;;19.17;92.17
75794;BME280;64418;47.536;19.074;2023-07-31T00:33:47;100018.94;;;19.15;92.22
75794;BME280;64418;47.536;19.074;2023-07-31T00:36:15;100019.22;;;19.13;92.30
75794;BME280;64418;47.536;19.074;2023-07-31T00:38:41;100023.63;;;19.14;92.17
75794;BME280;64418;47.536;19.074;2023-07-31T00:41:07;100020.84;;;19.09;92.49
75794;BME280;64418;47.536;19.074;2023-07-31T00:43:33;100024.16;;;19.06;92.72
75794;BME280;64418;47.536;19.074;2023-07-31T00:46:00;100028.25;;;19.09;92.66
75794;BME280;64418;47.536;19.074;2023-07-31T00:48:26;100030.19;;;19.08;92.63
75794;BME280;64418;47.536;19.074;2023-07-31T00:50:55;100030.19;;;19.13;92.22
75794;BME280;64418;47.536;19.074;2023-07-31T00:53:24;100030.19;;;19.13;92.47
75794;BME280;64418;47.536;19.074;2023-07-31T00:55:52;100034.03;;;19.02;92.96
75794;BME280;64418;47.536;19.074;2023-07-31T00:58:18;100037.31;;;19.04;92.80
75794;BME280;64418;47.536;19.074;2023-07-31T01:00:44;100036.47;;;18.99;93.14
75794;BME280;64418;47.536;19.074;2023-07-31T01:03:10;100048.84;;;19.01;93.21
75794;BME280;64418;47.536;19.074;2023-07-31T01:05:42;100012.53;;;18.79;93.59
75794;BME280;64418;47.536;19.074;2023-07-31T01:08:12;100040.28;;;18.93;94.14
75794;BME280;64418;47.536;19.074;2023-07-31T01:10:48;100043.31;;;18.91;94.15
75794;BME280;64418;47.536;19.074;2023-07-31T01:13:17;100039.19;;;18.84;94.64
75794;BME280;64418;47.536;19.074;2023-07-31T01:15:44;100038.59;;;18.82;94.86
75794;BME280;64418;47.536;19.074;2023-07-31T01:18:10;100036.06;;;18.70;95.50
75794;BME280;64418;47.536;19.074;2023-07-31T01:20:37;100037.69;;;18.61;95.79
75794;BME280;64418;47.536;19.074;2023-07-31T01:23:35;100040.41;;;18.56;96.21
75794;BME280;64418;47.536;19.074;2023-07-31T01:26:12;100048.66;;;18.56;96.32
75794;BME280;64418;47.536;19.074;2023-07-31T01:28:45;100045.84;;;18.51;96.54
75794;BME280;64418;47.536;19.074;2023-07-31T01:31:17;100051.59;;;18.49;96.53
75794;BME280;64418;47.536;19.074;2023-07-31T01:33:44;100048.88;;;18.49;96.43
75794;BME280;64418;47.536;19.074;2023-07-31T01:36:11;100052.44;;;18.50;96.55
75794;BME280;64418;47.536;19.074;2023-07-31T01:38:37;100051.84;;;18.48;96.64
75794;BME280;64418;47.536;19.074;2023-07-31T01:41:04;100046.91;;;18.45;96.91
75794;BME280;64418;47.536;19.074;2023-07-31T01:43:32;100042.00;;;18.47;96.94
75794;BME280;64418;47.536;19.074;2023-07-31T01:45:59;100035.41;;;18.48;97.01
75794;BME280;64418;47.536;19.074;2023-07-31T01:48:25;100040.87;;;18.43;97.57
75794;BME280;64418;47.536;19.074;2023-07-31T01:50:51;100038.38;;;18.41;97.80
75794;BME280;64418;47.536;19.074;2023-07-31T01:53:17;100023.75;;;18.25;98.15
75794;BME280;64418;47.536;19.074;2023-07-31T01:55:43;100043.91;;;18.46;97.63
75794;BME280;64418;47.536;19.074;2023-07-31T01:58:09;100041.91;;;18.37;98.03
75794;BME280;64418;47.536;19.074;2023-07-31T02:00:36;100029.06;;;18.42;97.74
75794;BME280;64418;47.536;19.074;2023-07-31T02:03:02;100025.50;;;18.42;97.59
75794;BME280;64418;47.536;19.074;2023-07-31T02:05:28;100028.53;;;18.45;97.43
75794;BME280;64418;47.536;19.074;2023-07-31T02:07:54;100020.81;;;18.37;97.74
75794;BME280;64418;47.536;19.074;2023-07-31T02:10:20;100023.28;;;18.39;97.59
75794;BME280;64418;47.536;19.074;2023-07-31T02:12:46;100027.41;;;18.41;97.32
75794;BME280;64418;47.536;19.074;2023-07-31T02:15:12;100026.53;;;18.31;97.84
75794;BME280;64418;47.536;19.074;2023-07-31T02:17:41;100024.34;;;18.33;98.01
75794;BME280;64418;47.536;19.074;2023-07-31T02:20:08;100030.59;;;18.23;98.15
75794;BME280;64418;47.536;19.074;2023-07-31T02:22:34;100022.63;;;18.16;98.41
75794;BME280;64418;47.536;19.074;2023-07-31T02:25:00;100024.81;;;18.19;98.29
75794;BME280;64418;47.536;19.074;2023-07-31T02:27:27;100033.25;;;18.13;98.37
75794;BME280;64418;47.536;19.074;2023-07-31T02:29:53;100030.28;;;18.14;97.96
75794;BME280;64418;47.536;19.074;2023-07-31T02:32:21;100033.06;;;18.19;97.44
75794;BME280;64418;47.536;19.074;2023-07-31T02:34:49;100036.34;;;18.16;97.29
75794;BME280;64418;47.536;19.074;2023-07-31T02:37:14;100034.38;;;18.17;96.78
75794;BME280;64418;47.536;19.074;2023-07-31T02:39:40;100041.56;;;18.23;96.35
75794;BME280;64418;47.536;19.074;2023-07-31T02:42:06;100039.12;;;18.26;95.57
75794;BME280;64418;47.536;19.074;2023-07-31T02:44:32;100044.34;;;18.28;95.28
75794;BME280;64418;47.536;19.074;2023-07-31T02:46:58;100027.37;;;18.31;94.47
75794;BME280;64418;47.536;19.074;2023-07-31T02:49:24;100032.84;;;18.31;94.46
75794;BME280;64418;47.536;19.074;2023-07-31T02:51:51;100034.19;;;18.28;94.32
75794;BME280;64418;47.536;19.074;2023-07-31T02:54:17;100038.03;;;18.27;94.52
75794;BME280;64418;47.536;19.074;2023-07-31T02:56:46;100044.28;;;18.18;95.03
75794;BME280;64418;47.536;19.074;2023-07-31T02:59:12;100045.62;;;18.15;95.15
75794;BME280;64418;47.536;19.074;2023-07-31T03:01:38;100049.72;;;18.13;95.05
75794;BME280;64418;47.536;19.074;2023-07-31T03:04:05;100048.16;;;18.22;94.66
75794;BME280;64418;47.536;19.074;2023-07-31T03:06:31;100056.06;;;18.18;94.51
75794;BME280;64418;47.536;19.074;2023-07-31T03:09:01;100052.16;;;18.09;95.07
75794;BME280;64418;47.536;19.074;2023-07-31T03:11:27;100048.62;;;18.09;94.79
75794;BME280;64418;47.536;19.074;2023-07-31T03:13:53;100060.38;;;18.04;95.04
75794;BME280;64418;47.536;19.074;2023-07-31T03:16:18;100060.91;;;18.01;95.06
75794;BME280;64418;47.536;19.074;2023-07-31T03:18:45;100064.44;;;18.02;94.96
75794;BME280;64418;47.536;19.074;2023-07-31T03:21:12;100065.03;;;18.04;94.79
75794;BME280;64418;47.536;19.074;2023-07-31T03:23:40;100060.06;;;18.01;94.92
75794;BME280;64418;47.536;19.074;2023-07-31T03:26:07;100061.19;;;18.05;94.85
75794;BME280;64418;47.536;19.074;2023-07-31T03:28:33;100052.09;;;17.99;95.01
75794;BME280;64418;47.536;19.074;2023-07-31T03:31:00;100063.06;;;17.99;94.83
75794;BME280;64418;47.536;19.074;2023-07-31T03:33:26;100071.34;;;18.04;94.47
75794;BME280;64418;47.536;19.074;2023-07-31T03:35:52;100076.22;;;17.97;94.74
75794;BME280;64418;47.536;19.074;2023-07-31T03:38:18;100069.62;;;17.98;94.44
75794;BME280;64418;47.536;19.074;2023-07-31T03:40:44;100072.38;;;17.98;94.48
75794;BME280;64418;47.536;19.074;2023-07-31T03:43:12;100066.88;;;17.98;94.43
75794;BME280;64418;47.536;19.074;2023-07-31T03:45:38;100070.44;;;17.99;94.17
75794;BME280;64418;47.536;19.074;2023-07-31T03:48:04;100050.37;;;17.88;93.94
75794;BME280;64418;47.536;19.074;2023-07-31T03:50:31;100069.62;;;17.98;93.94
75794;BME280;64418;47.536;19.074;2023-07-31T03:52:58;100078.97;;;18.02;93.68
75794;BME280;64418;47.536;19.074;2023-07-31T03:55:24;100076.81;;;18.04;93.38
75794;BME280;64418;47.536;19.074;2023-07-31T03:57:49;100085.06;;;18.09;93.02
75794;BME280;64418;47.536;19.074;2023-07-31T04:00:17;100075.72;;;18.05;92.86
75794;BME280;64418;47.536;19.074;2023-07-31T04:02:42;100084.25;;;18.09;92.81
75794;BME280;64418;47.536;19.074;2023-07-31T04:05:08;100081.28;;;18.15;92.07
75794;BME280;64418;47.536;19.074;2023-07-31T04:07:34;100084.31;;;18.19;92.24
75794;BME280;64418;47.536;19.074;2023-07-31T04:10:00;100077.78;;;18.25;91.90
75794;BME280;64418;47.536;19.074;2023-07-31T04:12:26;100090.75;;;18.35;91.12
75794;BME280;64418;47.536;19.074;2023-07-31T04:14:52;100084.97;;;18.31;91.02
75794;BME280;64418;47.536;19.074;2023-07-31T04:17:20;100078.06;;;18.23;90.96
75794;BME280;64418;47.536;19.074;2023-07-31T04:19:46;100097.87;;;18.36;90.65
75794;BME280;64418;47.536;19.074;2023-07-31T04:22:12;100091.28;;;18.37;90.21
75794;BME280;64418;47.536;19.074;2023-07-31T04:24:38;100088.63;;;18.47;89.33
75794;BME280;64418;47.536;19.074;2023-07-31T04:27:16;100090.22;;;18.38;89.32
75794;BME280;64418;47.536;19.074;2023-07-31T04:29:41;100088.84;;;18.40;89.45
75794;BME280;64418;47.536;19.074;2023-07-31T04:32:08;100097.56;;;18.27;89.68
75794;BME280;64418;47.536;19.074;2023-07-31T04:34:35;100080.25;;;18.26;89.77
75794;BME280;64418;47.536;19.074;2023-07-31T04:37:01;100087.41;;;18.27;89.65
75794;BME280;64418;47.536;19.074;2023-07-31T04:39:27;100089.09;;;18.34;89.44
75794;BME280;64418;47.536;19.074;2023-07-31T04:41:53;100084.91;;;18.26;89.44
75794;BME280;64418;47.536;19.074;2023-07-31T04:44:19;100084.16;;;18.36;88.76
75794;BME280;64418;47.536;19.074;2023-07-31T04:46:45;100094.87;;;18.37;88.83
75794;BME280;64418;47.536;19.074;2023-07-31T04:49:11;100098.72;;;18.41;88.56
75794;BME280;64418;47.536;19.074;2023-07-31T04:51:39;100084.53;;;18.49;87.98
75794;BME280;64418;47.536;19.074;2023-07-31T04:54:06;100096.12;;;18.56;87.41
75794;BME280;64418;47.536;19.074;2023-07-31T04:56:32;100102.34;;;18.47;87.59
75794;BME280;64418;47.536;19.074;2023-07-31T04:58:58;100093.25;;;18.41;87.53
75794;BME280;64418;47.536;19.074;2023-07-31T05:01:25;100101.19;;;18.38;87.67
75794;BME280;64418;47.536;19.074;2023-07-31T05:03:51;100107.84;;;18.47;86.73
75794;BME280;64418;47.536;19.074;2023-07-31T05:06:17;100101.72;;;18.40;86.42
75794;BME280;64418;47.536;19.074;2023-07-31T05:08:44;100105.09;;;18.47;85.59
75794;BME280;64418;47.536;19.074;2023-07-31T05:11:10;100099.41;;;18.58;83.84
75794;BME280;64418;47.536;19.074;2023-07-31T05:13:36;100099.41;;;18.58;84.68
75794;BME280;64418;47.536;19.074;2023-07-31T05:16:03;100100.53;;;18.62;84.06
75794;BME280;64418;47.536;19.074;2023-07-31T05:18:29;100110.09;;;18.55;82.49
75794;BME280;64418;47.536;19.074;2023-07-31T05:20:55;100108.94;;;18.51;80.62
75794;BME280;64418;47.536;19.074;2023-07-31T05:23:21;100098.06;;;18.66;80.11
75794;BME280;64418;47.536;19.074;2023-07-31T05:25:48;100100.03;;;18.70;79.80
75794;BME280;64418;47.536;19.074;2023-07-31T05:28:14;100105.75;;;18.64;79.12
75794;BME280;64418;47.536;19.074;2023-07-31T05:30:40;100109.66;;;18.73;78.23
75794;BME280;64418;47.536;19.074;2023-07-31T05:33:16;100118.19;;;18.77;77.94
75794;BME280;64418;47.536;19.074;2023-07-31T05:35:52;100116.03;;;18.89;77.46
75794;BME280;64418;47.536;19.074;2023-07-31T05:38:18;100115.53;;;18.92;75.24
75794;BME280;64418;47.536;19.074;2023-07-31T05:40:44;100106.22;;;18.98;74.98
75794;BME280;64418;47.536;19.074;2023-07-31T05:43:11;100109.81;;;19.08;74.21
75794;BME280;64418;47.536;19.074;2023-07-31T05:45:37;100107.41;;;19.27;72.50
75794;BME280;64418;47.536;19.074;2023-07-31T05:48:04;100108.88;;;19.45;71.70
75794;BME280;64418;47.536;19.074;2023-07-31T05:50:30;100101.72;;;19.44;71.01
75794;BME280;64418;47.536;19.074;2023-07-31T05:52:56;100112.44;;;19.50;69.87
75794;BME280;64418;47.536;19.074;2023-07-31T05:55:22;100122.34;;;19.56;70.20
75794;BME280;64418;47.536;19.074;2023-07-31T05:57:48;100104.22;;;19.60;68.49
75794;BME280;64418;47.536;19.074;2023-07-31T06:00:17;100119.91;;;19.70;68.41
75794;BME280;64418;47.536;19.074;2023-07-31T06:02:44;100125.97;;;19.77;68.31
75794;BME280;64418;47.536;19.074;2023-07-31T06:05:11;100128.66;;;19.57;68.44
75794;BME280;64418;47.536;19.074;2023-07-31T06:07:37;100124.03;;;19.73;68.35
75794;BME280;64418;47.536;19.074;2023-07-31T06:10:04;100123.47;;;19.76;68.44
75794;BME280;64418;47.536;19.074;2023-07-31T06:12:30;100127.88;;;19.87;67.59
75794;BME280;64418;47.536;19.074;2023-07-31T06:14:56;100133.13;;;19.98;67.34
75794;BME280;64418;47.536;19.074;2023-07-31T06:17:24;100133.38;;;19.87;67.27
75794;BME280;64418;47.536;19.074;2023-07-31T06:19:50;100129.00;;;19.81;67.58
75794;BME280;64418;47.536;19.074;2023-07-31T06:22:17;100122.66;;;19.70;67.06
75794;BME280;64418;47.536;19.074;2023-07-31T06:24:43;100133.69;;;19.90;66.98
75794;BME280;64418;47.536;19.074;2023-07-31T06:27:09;100132.59;;;20.06;66.64
75794;BME280;64418;47.536;19.074;2023-07-31T06:29:35;100137.81;;;20.18;65.84
75794;BME280;64418;47.536;19.074;2023-07-31T06:32:01;100133.16;;;20.24;65.51
75794;BME280;64418;47.536;19.074;2023-07-31T06:34:29;100126.81;;;20.18;65.08
75794;BME280;64418;47.536;19.074;2023-07-31T06:37:00;100132.06;;;20.30;64.61
75794;BME280;64418;47.536;19.074;2023-07-31T06:39:27;100122.69;;;20.41;64.78
75794;BME280;64418;47.536;19.074;2023-07-31T06:41:53;100119.41;;;20.39;64.12
75794;BME280;64418;47.536;19.074;2023-07-31T06:44:19;100124.09;;;20.38;63.97
75794;BME280;64418;47.536;19.074;2023-07-31T06:46:44;100126.00;;;20.48;64.07
75794;BME280;64418;47.536;19.074;2023-07-31T06:49:10;100128.75;;;20.58;64.35
75794;BME280;64418;47.536;19.074;2023-07-31T06:51:38;100132.06;;;20.30;65.03
75794;BME280;64418;47.536;19.074;2023-07-31T06:54:04;100135.09;;;20.38;65.24
75794;BME280;64418;47.536;19.074;2023-07-31T06:56:30;100135.63;;;20.20;65.23
75794;BME280;64418;47.536;19.074;2023-07-31T06:58:56;100131.50;;;20.12;65.51
75794;BME280;64418;47.536;19.074;2023-07-31T07:01:23;100144.16;;;20.24;65.74
75794;BME280;64418;47.536;19.074;2023-07-31T07:03:49;100137.00;;;20.33;65.71
75794;BME280;64418;47.536;19.074;2023-07-31T07:06:15;100132.59;;;20.27;66.05
75794;BME280;64418;47.536;19.074;2023-07-31T07:08:42;100137.53;;;20.14;65.74
75794;BME280;64418;47.536;19.074;2023-07-31T07:11:08;100140.84;;;20.27;65.93
75794;BME280;64418;47.536;19.074;2023-07-31T07:13:34;100147.47;;;20.36;65.70
75794;BME280;64418;47.536;19.074;2023-07-31T07:16:00;100140.03;;;20.11;65.96
75794;BME280;64418;47.536;19.074;2023-07-31T07:18:25;100140.56;;;20.18;65.84
75794;BME280;64418;47.536;19.074;2023-07-31T07:20:53;100146.38;;;20.42;65.43
75794;BME280;64418;47.536;19.074;2023-07-31T07:23:20;100156.81;;;20.55;64.76
75794;BME280;64418;47.536;19.074;2023-07-31T07:25:47;100149.34;;;20.81;64.20
75794;BME280;64418;47.536;19.074;2023-07-31T07:28:14;100150.19;;;20.71;63.94
75794;BME280;64418;47.536;19.074;2023-07-31T07:30:40;100151.53;;;20.79;63.12
75794;BME280;64418;47.536;19.074;2023-07-31T07:33:06;100150.19;;;20.66;63.50
75794;BME280;64418;47.536;19.074;2023-07-31T07:35:33;100153.97;;;20.90;62.31
75794;BME280;64418;47.536;19.074;2023-07-31T07:37:59;100151.19;;;21.05;61.64
75794;BME280;64418;47.536;19.074;2023-07-31T07:40:25;100151.63;;;21.38;59.96
75794;BME280;64418;47.536;19.074;2023-07-31T07:42:52;100155.44;;;21.52;59.19
75794;BME280;64418;47.536;19.074;2023-07-31T07:45:18;100152.37;;;21.53;58.49
75794;BME280;64418;47.536;19.074;2023-07-31T07:47:45;100153.78;;;21.51;57.69
75794;BME280;64418;47.536;19.074;2023-07-31T07:50:14;100145.06;;;21.78;57.64
75794;BME280;64418;47.536;19.074;2023-07-31T07:52:39;100155.28;;;21.72;57.41
75794;BME280;64418;47.536;19.074;2023-07-31T07:55:06;100148.28;;;21.46;56.80
75794;BME280;64418;47.536;19.074;2023-07-31T07:57:32;100144.00;;;21.69;56.13
75794;BME280;64418;47.536;19.074;2023-07-31T07:59:59;100142.69;;;21.61;56.23
75794;BME280;64418;47.536;19.074;2023-07-31T08:02:25;100145.50;;;21.46;56.04
75794;BME280;64418;47.536;19.074;2023-07-31T08:04:51;100138.87;;;21.52;55.97
75794;BME280;64418;47.536;19.074;2023-07-31T08:07:17;100148.50;;;21.54;54.83
75794;BME280;64418;47.536;19.074;2023-07-31T08:09:43;100150.09;;;22.09;53.38
75794;BME280;64418;47.536;19.074;2023-07-31T08:12:09;100144.56;;;22.09;52.21
75794;BME280;64418;47.536;19.074;2023-07-31T08:14:35;100140.25;;;22.61;51.20
75794;BME280;64418;47.536;19.074;2023-07-31T08:17:03;100139.59;;;22.45;49.99
75794;BME280;64418;47.536;19.074;2023-07-31T08:19:29;100133.78;;;22.47;49.53
75794;BME280;64418;47.536;19.074;2023-07-31T08:21:55;100133.91;;;23.13;48.70
75794;BME280;64418;47.536;19.074;2023-07-31T08:24:21;100141.78;;;23.67;47.34
75794;BME280;64418;47.536;19.074;2023-07-31T08:26:47;100139.00;;;23.25;48.71
75794;BME280;64418;47.536;19.074;2023-07-31T08:29:13;100138.56;;;23.79;48.24
75794;BME280;64418;47.536;19.074;2023-07-31T08:31:39;100145.59;;;23.71;47.64
75794;BME280;64418;47.536;19.074;2023-07-31T08:34:06;100141.03;;;23.80;46.56
75794;BME280;64418;47.536;19.074;2023-07-31T08:36:32;100141.19;;;23.70;47.14
75794;BME280;64418;47.536;19.074;2023-07-31T08:38:58;100136.03;;;24.33;46.63
75794;BME280;64418;47.536;19.074;2023-07-31T08:41:24;100138.87;;;24.61;46.31
75794;BME280;64418;47.536;19.074;2023-07-31T08:43:51;100133.41;;;24.42;46.32
75794;BME280;64418;47.536;19.074;2023-07-31T08:46:19;100130.97;;;24.54;45.88
75794;BME280;64418;47.536;19.074;2023-07-31T08:48:51;100140.44;;;24.67;44.79
75794;BME280;64418;47.536;19.074;2023-07-31T08:51:19;100136.84;;;24.66;44.73
75794;BME280;64418;47.536;19.074;2023-07-31T08:53:45;100133.13;;;24.57;45.24
75794;BME280;64418;47.536;19.074;2023-07-31T08:56:11;100130.94;;;23.89;45.13
75794;BME280;64418;47.536;19.074;2023-07-31T08:58:39;100130.75;;;23.99;44.43
75794;BME280;64418;47.536;19.074;2023-07-31T09:01:07;100130.47;;;24.01;44.72
75794;BME280;64418;47.536;19.074;2023-07-31T09:03:34;100130.56;;;24.47;43.83
75794;BME280;64418;47.536;19.074;2023-07-31T09:06:00;100127.25;;;24.45;44.13
75794;BME280;64418;47.536;19.074;2023-07-31T09:08:30;100127.47;;;24.95;43.08
75794;BME280;64418;47.536;19.074;2023-07-31T09:10:59;100125.19;;;24.97;42.88
75794;BME280;64418;47.536;19.074;2023-07-31T09:13:25;100122.00;;;24.30;42.88
75794;BME280;64418;47.536;19.074;2023-07-31T09:15:51;100127.41;;;24.67;43.39
75794;BME280;64418;47.536;19.074;2023-07-31T09:18:17;100128.37;;;24.44;44.75
75794;BME280;64418;47.536;19.074;2023-07-31T09:20:43;100118.78;;;24.82;44.29
75794;BME280;64418;47.536;19.074;2023-07-31T09:23:10;100125.53;;;24.63;44.75
75794;BME280;64418;47.536;19.074;2023-07-31T09:25:39;100120.03;;;24.76;44.34
75794;BME280;64418;47.536;19.074;2023-07-31T09:28:06;100123.31;;;24.78;43.83
75794;BME280;64418;47.536;19.074;2023-07-31T09:30:44;100134.69;;;24.63;44.89
75794;BME280;64418;47.536;19.074;2023-07-31T09:33:10;100130.50;;;24.79;43.73
75794;BME280;64418;47.536;19.074;2023-07-31T09:35:37;100121.69;;;24.77;44.17
75794;BME280;64418;47.536;19.074;2023-07-31T09:38:05;100118.44;;;25.03;44.25
75794;BME280;64418;47.536;19.074;2023-07-31T09:40:33;100118.03;;;24.96;43.86
75794;BME280;64418;47.536;19.074;2023-07-31T09:43:03;100125.72;;;24.39;44.13
75794;BME280;64418;47.536;19.074;2023-07-31T09:45:30;100128.63;;;24.75;42.00
75794;BME280;64418;47.536;19.074;2023-07-31T09:47:56;100120.47;;;25.24;40.49
75794;BME280;64418;47.536;19.074;2023-07-31T09:50:23;100115.13;;;24.73;41.74
75794;BME280;64418;47.536;19.074;2023-07-31T09:52:50;100110.84;;;24.95;41.56
75794;BME280;64418;47.536;19.074;2023-07-31T09:55:16;100112.75;;;25.35;41.35
75794;BME280;64418;47.536;19.074;2023-07-31T09:57:44;100107.72;;;25.37;41.69
75794;BME280;64418;47.536;19.074;2023-07-31T10:00:12;100100.72;;;25.39;42.88
75794;BME280;64418;47.536;19.074;2023-07-31T10:02:39;100103.88;;;26.41;40.89
75794;BME280;64418;47.536;19.074;2023-07-31T10:05:06;100113.31;;;26.17;40.26
75794;BME280;64418;47.536;19.074;2023-07-31T10:07:36;100113.47;;;25.90;40.96
75794;BME280;64418;47.536;19.074;2023-07-31T10:10:04;100106.72;;;26.05;40.30
75794;BME280;64418;47.536;19.074;2023-07-31T10:12:33;100103.56;;;25.75;40.47
75794;BME280;64418;47.536;19.074;2023-07-31T10:14:59;100109.69;;;25.72;40.00
75794;BME280;64418;47.536;19.074;2023-07-31T10:17:28;100107.38;;;26.24;39.19
75794;BME280;64418;47.536;19.074;2023-07-31T10:19:56;100111.87;;;25.98;39.20
75794;BME280;64418;47.536;19.074;2023-07-31T10:22:23;100114.78;;;25.93;39.61
75794;BME280;64418;47.536;19.074;2023-07-31T10:24:50;100115.88;;;26.27;38.84
75794;BME280;64418;47.536;19.074;2023-07-31T10:27:16;100108.22;;;25.88;39.09
75794;BME280;64418;47.536;19.074;2023-07-31T10:29:43;100106.16;;;25.94;38.67
75794;BME280;64418;47.536;19.074;2023-07-31T10:32:11;100101.97;;;26.05;39.06
75794;BME280;64418;47.536;19.074;2023-07-31T10:34:39;100111.87;;;26.42;38.72
75794;BME280;64418;47.536;19.074;2023-07-31T10:37:23;100114.69;;;26.20;39.16
75794;BME280;64418;47.536;19.074;2023-07-31T10:39:56;100097.87;;;26.03;39.56
75794;BME280;64418;47.536;19.074;2023-07-31T10:42:28;100101.16;;;26.05;39.81
75794;BME280;64418;47.536;19.074;2023-07-31T10:44:57;100095.69;;;26.75;38.66
75794;BME280;64418;47.536;19.074;2023-07-31T10:47:23;100088.13;;;26.14;39.36
75794;BME280;64418;47.536;19.074;2023-07-31T10:49:51;100092.97;;;26.22;39.43
75794;BME280;64418;47.536;19.074;2023-07-31T10:52:20;100083.09;;;26.16;40.22
75794;BME280;64418;47.536;19.074;2023-07-31T10:54:47;100091.84;;;26.23;40.28
75794;BME280;64418;47.536;19.074;2023-07-31T10:57:22;100083.75;;;26.74;39.01
75794;BME280;64418;47.536;19.074;2023-07-31T10:59:48;100090.44;;;26.34;39.40
75794;BME280;64418;47.536;19.074;2023-07-31T11:02:24;100086.88;;;27.04;37.98
75794;BME280;64418;47.536;19.074;2023-07-31T11:05:05;100081.09;;;26.92;38.16
75794;BME280;64418;47.536;19.074;2023-07-31T11:07:46;100082.66;;;27.32;37.17
75794;BME280;64418;47.536;19.074;2023-07-31T11:10:16;100076.59;;;26.82;37.41
75794;BME280;64418;47.536;19.074;2023-07-31T11:12:42;100073.28;;;27.11;37.07
75794;BME280;64418;47.536;19.074;2023-07-31T11:15:09;100072.34;;;27.33;36.40
75794;BME280;64418;47.536;19.074;2023-07-31T11:17:38;100071.72;;;27.96;35.60
75794;BME280;64418;47.536;19.074;2023-07-31T11:20:07;100070.53;;;27.28;36.36
75794;BME280;64418;47.536;19.074;2023-07-31T11:22:35;100065.78;;;27.20;36.29
75794;BME280;64418;47.536;19.074;2023-07-31T11:25:01;100065.88;;;26.58;36.98
75794;BME280;64418;47.536;19.074;2023-07-31T11:27:27;100055.62;;;27.07;35.85
75794;BME280;64418;47.536;19.074;2023-07-31T11:29:53;100056.84;;;26.84;36.21
75794;BME280;64418;47.536;19.074;2023-07-31T11:32:25;100059.56;;;26.75;36.35
75794;BME280;64418;47.536;19.074;2023-07-31T11:34:52;100056.81;;;27.23;35.55
75794;BME280;64418;47.536;19.074;2023-07-31T11:37:20;100061.31;;;27.02;35.76
75794;BME280;64418;47.536;19.074;2023-07-31T11:40:01;100055.59;;;26.98;35.60
75794;BME280;64418;47.536;19.074;2023-07-31T11:42:27;100060.63;;;26.88;36.05
75794;BME280;64418;47.536;19.074;2023-07-31T11:44:53;100049.06;;;27.03;36.04
75794;BME280;64418;47.536;19.074;2023-07-31T11:47:20;100050.06;;;27.24;35.90
75794;BME280;64418;47.536;19.074;2023-07-31T11:49:46;100058.59;;;26.79;36.34
75794;BME280;64418;47.536;19.074;2023-07-31T11:52:12;100061.00;;;27.03;36.04
75794;BME280;64418;47.536;19.074;2023-07-31T11:54:40;100053.63;;;26.99;36.22
75794;BME280;64418;47.536;19.074;2023-07-31T11:57:07;100051.13;;;27.62;35.25
75794;BME280;64418;47.536;19.074;2023-07-31T11:59:34;100049.28;;;27.32;35.93
75794;BME280;64418;47.536;19.074;2023-07-31T12:02:00;100043.56;;;27.89;35.00
75794;BME280;64418;47.536;19.074;2023-07-31T12:04:26;100041.31;;;27.56;35.14
75794;BME280;64418;47.536;19.074;2023-07-31T12:06:53;100035.56;;;27.70;35.00
75794;BME280;64418;47.536;19.074;2023-07-31T12:09:18;100029.16;;;27.69;35.22
75794;BME280;64418;47.536;19.074;2023-07-31T12:11:47;100036.34;;;27.96;34.77
75794;BME280;64418;47.536;19.074;2023-07-31T12:14:20;100030.78;;;27.88;35.00
75794;BME280;64418;47.536;19.074;2023-07-31T12:16:46;100021.44;;;27.92;34.73
75794;BME280;64418;47.536;19.074;2023-07-31T12:19:12;100028.78;;;28.14;34.48
75794;BME280;64418;47.536;19.074;2023-07-31T12:21:38;100025.31;;;28.26;34.29
75794;BME280;64418;47.536;19.074;2023-07-31T12:24:04;100022.97;;;27.55;35.21
75794;BME280;64418;47.536;19.074;2023-07-31T12:26:34;100016.91;;;27.79;34.93
75794;BME280;64418;47.536;19.074;2023-07-31T12:29:01;100017.06;;;27.65;34.80
75794;BME280;64418;47.536;19.074;2023-07-31T12:31:28;100011.34;;;28.43;33.83
75794;BME280;64418;47.536;19.074;2023-07-31T12:33:55;100009.19;;;28.48;33.58
75794;BME280;64418;47.536;19.074;2023-07-31T12:36:22;100011.91;;;28.19;34.17
75794;BME280;64418;47.536;19.074;2023-07-31T12:38:50;100007.38;;;27.89;34.66
75794;BME280;64418;47.536;19.074;2023-07-31T12:41:17;100014.59;;;28.45;33.51